Time;durP1;ratioP1;P1;durP2;ratioP2;P2;SDS_P1;SDS_P2;PMS_P1;PMS_P2;Temp;Humidity;BMP_temperature;BMP_pressure;BME280_temperature;BME280_humidity;BME280_pressure;Samples;Min_cycle;Max_cycle;Signal;HPM_P1;HPM_P2
2021/12/29 00:06:30;;;;;;;3.25;1.50;;;12.00;50.50;;;;;;20644618;28;20050;-80
2021/12/29 00:16:34;;;;;;;2.65;1.20;;;12.00;50.60;;;;;;20665526;28;20404;-79
2021/12/29 00:26:35;;;;;;;3.08;1.38;;;12.00;50.70;;;;;;20675010;28;20378;-78
2021/12/29 00:36:36;;;;;;;2.10;1.30;;;11.90;50.70;;;;;;20692453;28;20038;-79
2021/12/29 00:46:55;;;;;;;2.92;1.40;;;11.90;50.80;;;;;;20673832;28;20047;-78
2021/12/29 00:56:57;;;;;;;2.50;1.02;;;12.00;50.90;;;;;;20656915;28;20033;-78
2021/12/29 01:06:59;;;;;;;1.92;1.15;;;11.90;50.90;;;;;;20689360;28;20362;-78
2021/12/29 01:16:59;;;;;;;3.25;1.52;;;11.90;51.00;;;;;;20655828;28;20042;-77
2021/12/29 01:27:00;;;;;;;1.42;1.08;;;11.90;51.00;;;;;;20685347;28;20313;-79
2021/12/29 01:37:01;;;;;;;1.17;0.93;;;11.80;51.10;;;;;;20670556;28;20472;-80
2021/12/29 01:47:02;;;;;;;1.73;1.02;;;11.80;51.20;;;;;;20669257;28;20125;-79
2021/12/29 01:57:05;;;;;;;1.13;0.90;;;11.80;51.30;;;;;;20668890;28;20132;-78
2021/12/29 02:07:05;;;;;;;2.30;1.48;;;11.80;51.40;;;;;;20684478;28;20041;-79
2021/12/29 02:17:08;;;;;;;2.63;0.90;;;11.80;51.50;;;;;;20635138;28;20481;-78
2021/12/29 02:27:11;;;;;;;1.80;0.90;;;11.70;51.50;;;;;;20649704;28;20125;-79
2021/12/29 02:37:19;;;;;;;2.15;0.98;;;11.70;51.60;;;;;;20664640;28;20518;-79
2021/12/29 02:47:21;;;;;;;1.80;0.90;;;11.70;51.70;;;;;;20634156;28;20061;-79
2021/12/29 02:57:22;;;;;;;1.73;0.73;;;11.70;51.80;;;;;;20616115;28;20042;-79
2021/12/29 03:07:23;;;;;;;1.27;0.73;;;11.70;51.90;;;;;;20646672;28;20038;-79
2021/12/29 03:17:24;;;;;;;2.22;1.08;;;11.70;52.00;;;;;;20663857;28;20030;-78
2021/12/29 03:27:24;;;;;;;2.45;1.00;;;11.60;52.00;;;;;;20646297;28;20057;-79
2021/12/29 03:37:25;;;;;;;1.90;1.05;;;11.60;52.10;;;;;;20662244;28;20126;-79
2021/12/29 03:47:27;;;;;;;0.98;0.50;;;11.60;52.20;;;;;;20614238;28;20555;-78
2021/12/29 03:57:27;;;;;;;1.23;0.65;;;11.60;52.20;;;;;;20659009;28;20026;-77
2021/12/29 04:07:28;;;;;;;1.33;0.70;;;11.60;52.30;;;;;;20660030;28;20068;-79
2021/12/29 04:17:36;;;;;;;1.17;0.70;;;11.60;52.40;;;;;;20661840;28;20109;-79
2021/12/29 04:27:38;;;;;;;0.85;0.50;;;11.60;52.50;;;;;;20645572;28;20383;-79
2021/12/29 04:37:41;;;;;;;1.25;0.77;;;11.50;52.50;;;;;;20658243;28;20125;-79
2021/12/29 04:47:45;;;;;;;0.88;0.60;;;11.50;52.60;;;;;;20656153;28;20053;-78
2021/12/29 04:57:46;;;;;;;1.35;0.80;;;11.50;52.70;;;;;;20640678;28;20038;-79
2021/12/29 05:18:07;;;;;;;2.17;0.98;;;11.80;52.50;;;;;;20657976;28;20057;-79
2021/12/29 05:28:09;;;;;;;2.38;0.98;;;12.90;50.10;;;;;;20671230;28;20038;-78
2021/12/29 05:38:11;;;;;;;1.98;1.00;;;14.10;47.90;;;;;;20653289;28;20084;-78
2021/12/29 05:48:12;;;;;;;2.42;1.00;;;15.20;45.50;;;;;;20635981;28;20125;-78
2021/12/29 05:58:13;;;;;;;1.83;1.13;;;16.00;43.60;;;;;;20668406;28;20473;-79
2021/12/29 06:08:14;;;;;;;2.50;1.00;;;16.50;42.50;;;;;;20668136;28;20277;-79
2021/12/29 06:18:15;;;;;;;1.80;1.13;;;16.60;41.90;;;;;;20635299;28;20085;-83
2021/12/29 06:28:16;;;;;;;2.15;1.00;;;16.70;41.60;;;;;;20666284;28;20101;-79
2021/12/29 06:38:18;;;;;;;2.95;1.15;;;16.40;41.80;;;;;;20652130;28;20034;-80
2021/12/29 06:48:19;;;;;;;2.03;0.98;;;15.40;43.40;;;;;;20634608;28;20038;-78
2021/12/29 06:58:19;;;;;;;2.15;1.10;;;14.40;45.20;;;;;;20631375;28;20184;-79
2021/12/29 07:08:21;;;;;;;1.63;1.15;;;13.60;46.80;;;;;;20615307;28;20125;-78
2021/12/29 07:18:22;;;;;;;2.38;1.38;;;13.00;48.20;;;;;;20661028;28;20038;-79
2021/12/29 07:28:24;;;;;;;5.55;1.67;;;12.60;49.40;;;;;;20641385;28;20121;-79
2021/12/29 07:38:24;;;;;;;1.92;0.90;;;12.40;50.40;;;;;;20662856;28;20073;-77
2021/12/29 07:48:28;;;;;;;2.20;1.42;;;12.20;50.90;;;;;;20679303;28;20492;-82
2021/12/29 07:58:28;;;;;;;2.92;1.38;;;12.20;51.40;;;;;;20682997;28;20042;-82
2021/12/29 08:08:29;;;;;;;2.38;1.30;;;12.10;51.80;;;;;;20679718;28;20114;-79
2021/12/29 08:18:29;;;;;;;2.30;1.60;;;12.10;52.10;;;;;;20679427;28;20037;-79
2021/12/29 08:28:30;;;;;;;3.42;1.48;;;12.00;52.30;;;;;;20679216;28;20043;-79
2021/12/29 08:38:31;;;;;;;3.28;1.92;;;12.10;52.70;;;;;;20677585;28;20035;-82
2021/12/29 08:48:31;;;;;;;3.05;2.00;;;12.00;53.00;;;;;;20676423;28;20066;-79
2021/12/29 08:58:32;;;;;;;2.40;1.33;;;12.10;53.50;;;;;;20676811;28;20062;-80
2021/12/29 09:08:38;;;;;;;5.00;1.70;;;12.00;53.90;;;;;;20682526;28;20093;-80
2021/12/29 09:18:38;;;;;;;2.95;1.30;;;11.90;54.10;;;;;;20698904;28;20033;-80
2021/12/29 09:28:39;;;;;;;2.40;1.10;;;11.90;54.40;;;;;;20721958;28;20084;-82
2021/12/29 09:38:40;;;;;;;2.45;1.10;;;11.80;54.50;;;;;;20721908;28;20678;-78
2021/12/29 09:48:40;;;;;;;1.75;1.05;;;11.80;54.70;;;;;;20734376;28;20037;-78
2021/12/29 09:58:41;;;;;;;5.40;1.37;;;11.80;54.90;;;;;;20716687;28;20044;-74
2021/12/29 10:08:43;;;;;;;1.53;0.93;;;11.70;55.10;;;;;;20715521;28;20295;-74
2021/12/29 10:18:45;;;;;;;2.63;1.50;;;11.80;55.30;;;;;;20723907;28;20698;-74
2021/12/29 10:28:48;;;;;;;2.53;1.15;;;11.70;55.50;;;;;;20729313;28;20053;-75
2021/12/29 10:38:54;;;;;;;2.40;0.95;;;11.60;55.60;;;;;;20714016;28;20041;-78
2021/12/29 10:48:55;;;;;;;1.73;1.10;;;11.60;55.70;;;;;;20749020;28;20069;-79
2021/12/29 10:58:56;;;;;;;2.30;1.15;;;11.50;55.80;;;;;;20748558;28;20384;-80
2021/12/29 11:09:02;;;;;;;2.10;1.10;;;11.50;55.80;;;;;;20748104;28;20427;-80
2021/12/29 11:19:03;;;;;;;1.47;0.83;;;11.90;55.30;;;;;;20705375;28;20034;-79
2021/12/29 11:29:14;;;;;;;2.28;1.08;;;13.00;52.90;;;;;;21099599;22;20395;-85
2021/12/29 11:39:16;;;;;;;2.22;1.10;;;14.00;50.50;;;;;;20727601;28;20488;-79
2021/12/29 11:49:18;;;;;;;1.45;0.70;;;14.90;48.40;;;;;;20685669;28;20076;-78
2021/12/29 11:59:18;;;;;;;1.45;0.60;;;15.70;46.40;;;;;;20648772;28;20447;-79
2021/12/29 12:09:25;;;;;;;4.25;0.68;;;16.20;45.10;;;;;;20632419;28;20038;-78
2021/12/29 12:19:28;;;;;;;1.00;0.70;;;16.40;44.40;;;;;;20663471;28;20050;-79
2021/12/29 12:29:31;;;;;;;0.77;0.57;;;16.40;44.10;;;;;;20661483;28;20125;-79
2021/12/29 12:39:32;;;;;;;0.88;0.57;;;16.30;44.10;;;;;;20678418;28;20038;-80
2021/12/29 12:49:47;;;;;;;0.75;0.50;;;15.50;45.40;;;;;;20661677;28;20030;-79
2021/12/29 12:59:47;;;;;;;1.58;0.70;;;14.50;47.20;;;;;;20676934;28;20038;-79
2021/12/29 13:09:48;;;;;;;1.60;0.63;;;13.80;49.60;;;;;;20676136;28;20484;-78
2021/12/29 13:19:49;;;;;;;1.75;0.90;;;13.20;50.20;;;;;;20673981;28;20046;-79
2021/12/29 13:29:59;;;;;;;1.17;0.57;;;12.80;51.40;;;;;;20738478;28;20038;-79
2021/12/29 13:40:09;;;;;;;1.33;0.80;;;12.60;52.30;;;;;;20737714;28;20332;-79
2021/12/29 13:50:11;;;;;;;2.25;1.02;;;12.50;52.70;;;;;;20718687;28;20042;-76
2021/12/29 14:00:13;;;;;;;1.27;0.80;;;12.50;53.00;;;;;;20735729;28;20387;-78
2021/12/29 14:10:14;;;;;;;6.47;0.80;;;12.60;53.40;;;;;;20751524;28;20040;-77
2021/12/29 14:20:15;;;;;;;3.00;1.30;;;12.70;53.40;;;;;;20734843;28;20109;-78
2021/12/29 14:30:26;;;;;;;8.90;2.25;;;13.00;53.50;;;;;;20733634;28;20039;-77
2021/12/29 14:40:28;;;;;;;4.70;2.30;;;12.90;54.60;;;;;;20716108;28;20038;-78
2021/12/29 14:50:29;;;;;;;6.80;3.50;;;12.70;56.40;;;;;;20732247;28;20038;-75
2021/12/29 15:00:34;;;;;;;13.35;4.78;;;12.40;58.50;;;;;;20717678;28;20480;-74
2021/12/29 15:10:40;;;;;;;10.50;4.63;;;12.50;59.20;;;;;;20745285;28;20396;-74
2021/12/29 15:20:46;;;;;;;12.20;3.37;;;12.50;59.00;;;;;;20745723;28;20073;-74
2021/12/29 15:30:49;;;;;;;11.13;3.90;;;12.40;59.00;;;;;;20714137;28;20116;-76
2021/12/29 15:40:49;;;;;;;9.13;2.95;;;12.30;58.90;;;;;;20713689;28;20050;-76
2021/12/29 15:50:50;;;;;;;7.47;2.83;;;12.80;57.90;;;;;;20721646;28;20129;-75
2021/12/29 16:00:51;;;;;;;5.82;2.38;;;13.70;55.50;;;;;;20745653;28;20041;-75
2021/12/29 16:10:52;;;;;;;4.18;1.92;;;14.50;53.20;;;;;;20728273;28;20026;-75
2021/12/29 16:20:52;;;;;;;4.68;1.90;;;15.30;51.00;;;;;;20710771;28;20149;-75
2021/12/29 16:30:53;;;;;;;3.03;1.50;;;15.80;49.50;;;;;;20722012;28;20040;-73
2021/12/29 16:40:58;;;;;;;5.73;1.80;;;16.00;48.90;;;;;;20706908;28;20332;-75
2021/12/29 16:51:13;;;;;;;2.42;1.50;;;16.00;48.50;;;;;;20755971;28;20281;-76
2021/12/29 17:01:20;;;;;;;2.50;1.65;;;15.80;48.60;;;;;;20719312;28;20033;-75
2021/12/29 17:11:21;;;;;;;2.25;1.20;;;15.00;49.90;;;;;;20756630;28;20030;-75
2021/12/29 17:21:21;;;;;;;3.88;1.27;;;14.30;51.20;;;;;;20721511;28;20045;-76
2021/12/29 17:31:22;;;;;;;2.95;1.48;;;13.60;52.60;;;;;;20752197;28;20111;-75
2021/12/29 17:41:23;;;;;;;1.93;1.00;;;13.10;53.80;;;;;;20720890;28;20121;-76
2021/12/29 17:51:23;;;;;;;2.65;1.00;;;12.80;54.90;;;;;;20717195;28;20826;-75
2021/12/29 18:01:24;;;;;;;2.70;1.02;;;12.60;55.60;;;;;;20736104;28;20125;-77
2021/12/29 18:11:25;;;;;;;1.80;1.05;;;12.40;56.00;;;;;;20696531;28;20591;-80
2021/12/29 18:21:25;;;;;;;1.70;1.07;;;12.50;56.30;;;;;;20729568;28;20112;-77
2021/12/29 18:31:26;;;;;;;1.98;0.90;;;12.40;56.40;;;;;;20717864;28;20362;-76
2021/12/29 18:41:27;;;;;;;1.27;0.80;;;12.40;56.40;;;;;;20717432;28;20038;-77
2021/12/29 18:51:27;;;;;;;1.98;1.00;;;12.50;56.40;;;;;;20749244;28;20033;-79
2021/12/29 19:01:28;;;;;;;2.97;1.25;;;12.50;56.30;;;;;;20715350;28;20454;-79
2021/12/29 19:11:32;;;;;;;1.33;0.90;;;12.50;56.20;;;;;;20716505;28;20392;-76
2021/12/29 19:21:33;;;;;;;4.50;1.00;;;12.60;56.20;;;;;;20716252;28;20369;-78
2021/12/29 19:31:34;;;;;;;2.33;1.20;;;12.60;56.10;;;;;;20758731;28;20044;-78
2021/12/29 19:41:35;;;;;;;1.17;0.80;;;12.50;56.10;;;;;;20794071;28;20041;-78
2021/12/29 19:51:36;;;;;;;2.10;1.15;;;12.60;56.10;;;;;;20793820;28;20541;-78
2021/12/29 20:01:37;;;;;;;1.92;1.10;;;12.50;56.00;;;;;;20811148;28;20125;-78
2021/12/29 20:11:37;;;;;;;2.25;1.23;;;12.50;56.00;;;;;;20777438;28;20041;-78
2021/12/29 20:21:39;;;;;;;1.50;0.70;;;12.50;56.00;;;;;;20793910;28;20034;-78
2021/12/29 20:31:39;;;;;;;1.52;0.90;;;12.50;55.90;;;;;;20770696;28;20370;-79
2021/12/29 20:41:40;;;;;;;0.93;0.70;;;12.50;55.90;;;;;;20835304;28;20060;-79
2021/12/29 20:51:41;;;;;;;1.80;0.90;;;12.50;55.90;;;;;;20807352;28;20382;-77
2021/12/29 21:01:42;;;;;;;1.55;0.80;;;12.50;56.00;;;;;;20794405;28;20038;-85
2021/12/29 21:11:42;;;;;;;1.80;0.93;;;12.50;56.00;;;;;;20749176;28;20033;-86
2021/12/29 21:21:43;;;;;;;1.40;1.05;;;12.50;56.00;;;;;;20757589;28;20042;-84
2021/12/29 21:31:43;;;;;;;1.48;0.77;;;12.50;56.10;;;;;;20741380;28;20079;-83
2021/12/29 21:41:44;;;;;;;1.27;0.90;;;12.40;56.00;;;;;;20724513;28;20033;-83
2021/12/29 21:51:45;;;;;;;1.27;0.60;;;12.40;56.10;;;;;;20740605;28;20758;-83
2021/12/29 22:01:45;;;;;;;2.13;0.82;;;12.40;56.10;;;;;;20806482;28;20044;-85
2021/12/29 22:11:47;;;;;;;1.05;0.60;;;12.40;56.30;;;;;;20664836;28;20072;-85
2021/12/29 22:21:48;;;;;;;2.03;0.98;;;12.30;56.30;;;;;;20761851;28;20033;-84
2021/12/29 22:31:49;;;;;;;1.13;0.80;;;12.30;56.40;;;;;;20805736;28;20041;-83
2021/12/29 22:41:50;;;;;;;1.00;0.70;;;12.30;56.40;;;;;;20815787;28;20107;-83
2021/12/29 22:51:50;;;;;;;1.33;0.77;;;12.30;56.50;;;;;;20801781;28;20041;-84
2021/12/29 23:01:51;;;;;;;2.03;1.00;;;12.30;56.50;;;;;;20815902;28;20069;-84
2021/12/29 23:11:52;;;;;;;0.88;0.80;;;12.20;56.60;;;;;;20784421;28;20087;-84
2021/12/29 23:21:52;;;;;;;0.90;0.65;;;12.20;56.60;;;;;;20832079;28;20407;-84
2021/12/29 23:31:53;;;;;;;1.52;0.80;;;12.20;56.70;;;;;;20799290;28;20061;-83
2021/12/29 23:41:54;;;;;;;1.60;0.50;;;12.20;56.70;;;;;;20799706;28;20092;-84
2021/12/29 23:51:54;;;;;;;1.25;0.70;;;12.20;56.70;;;;;;20798520;28;20033;-85
